Whitehall, United Kingdom
Current Conditions -  °F | °C
As of 7:50 AM on Saturday 20 Dec 2014 (Local Time) from EGVO Reporting Station
Broken Clouds Broken Clouds  
Wind Chill: 35°   Ceiling: 4200
Heat Index: 43°   Visibility: 6mi
Dew Point: 37°   Wind: 15mph
Humidity: 81%   Direction: 230°SW
Pressure: 30.27"   Gusts: NA
Location:  51.12°N, 0.88°W
Report Text: EGVO 200750Z 23013KT 9999 FEW030 BKN042 06/03 Q1025 BLU
Loading
Personal Weather Stations






























Interactive Weather Map New forecast layout! Learn more

10-Day Weather Forecast

Advertisements
Track Severe Weather on mobile